TFM - Tactical Decision Aid (Experimental) INFO Settings

ID: Runway Winds: CIG/VIS Threshold: METAR Board: Map:

KIAD - Washington-Dulles Intl

Updated at: 1311 UTC 31 Aug 2015
Latest TAF at: 1126 UTC 31 Aug 2015

TAF Board

Time1252Z31/14Z31/15Z31/16Z31/17Z31/18Z31/19Z31/20Z31/21Z31/22Z31/23Z01/00Z01/01Z01/02Z
TypeOBSPRVLPRVLPRVLPRVLPRVLPRVLPRVLPRVLPRVLPRVLPRVLPRVLPRVL
VIS10>6>6>6>6>6>6>6>6>6>6>6>6>6
CIG1009090909090909090909090----
CoverBKNBKNBKNBKNBKNBKNBKNBKNBKNBKNBKNBKNSCTSCT
FltCatVFRVFRVFRVFRVFRVFRVFRVFRVFRVFRVFRVFRVFRVFR
WX----------------------------
WDirVRB200200200200200200200200200200200220220
WSpd05555555555544
WGst----------------------------
TAF
KIAD 311126Z 3112/0118 20005KT P6SM BKN090
  FM010100 22004KT P6SM SCT110
  FM010800 00000KT P6SM FEW250


METAR
KIAD 311252Z 00000KT 10SM FEW050 BKN100 BKN180 23/19 A3009 RMK AO2 RAE07B31E45 SLP188 P0001 T02330194
KIAD 311152Z 19005KT 10SM -RA FEW048 BKN090 BKN180 23/19 A3010 RMK AO2 RAB11E24B51 SLP190 P0000 60000 T02280194 10239 20211 53011

TAF/METAR Board Legend

Potential Impact
  None Marginal Slight Moderate High
Visibility (sm) >5 3≤X≤5 1≤X<3 0.5≤X<1 <0.5
Ceiling (100 ft) >30 10≤X≤30 4≤X<10 2≤X<4 <2
Wind Speed (kt) <10 10≤X<20 20≤X<30 ≥30
Wind Gust (kt) <15 15≤X<25 25≤X<35 ≥35
Weather No Wx Reported VCTS -TS,-FZRA TS,FZRA +TS,+FZRA




Notice: Undefined offset: -1 in /caws/site/new_awc/application/modules/trafficflowmgmt/controllers/TdaController.php on line 282